createdAt,value
2022-11-13T00:00:42.249Z,9.667987
2022-11-13T00:01:41.442Z,9.668000
2022-11-13T00:02:41.549Z,9.667962
2022-11-13T00:03:41.441Z,9.667954
2022-11-13T00:04:41.471Z,9.667946
2022-11-13T00:05:41.455Z,9.667933
2022-11-13T00:06:41.449Z,9.667990
2022-11-13T00:07:41.376Z,9.667954
2022-11-13T00:08:41.386Z,9.667969
2022-11-13T00:09:41.403Z,9.667940
2022-11-13T00:10:41.787Z,9.667953
2022-11-13T00:11:41.376Z,9.667928
2022-11-13T00:12:41.331Z,9.667928
2022-11-13T00:13:41.346Z,9.667956
2022-11-13T00:14:41.369Z,9.667961
2022-11-13T00:15:41.373Z,9.667935
2022-11-13T00:16:41.369Z,9.667927
2022-11-13T00:17:41.340Z,9.667951
2022-11-13T00:18:41.374Z,9.667974
2022-11-13T00:19:41.299Z,9.667964
2022-11-13T00:20:41.347Z,9.668015
2022-11-13T00:21:41.269Z,9.668016
2022-11-13T00:22:41.286Z,9.667993
2022-11-13T00:23:41.249Z,9.667951
2022-11-13T00:24:41.247Z,9.667993
2022-11-13T00:25:41.237Z,9.667952
2022-11-13T00:26:41.223Z,9.667970
2022-11-13T00:27:41.269Z,9.667976
2022-11-13T00:28:41.230Z,9.667960
2022-11-13T00:29:41.236Z,9.667928
2022-11-13T00:30:42.186Z,9.667944
2022-11-13T00:31:41.254Z,9.667908
2022-11-13T00:32:41.204Z,9.667922
2022-11-13T00:34:48.063Z,9.668016
2022-11-13T00:35:43.710Z,9.667981
2022-11-13T00:36:41.167Z,9.667993
2022-11-13T00:37:41.197Z,9.668010
2022-11-13T00:38:41.156Z,9.667994
2022-11-13T00:39:41.129Z,9.668021
2022-11-13T00:40:41.117Z,9.668022
2022-11-13T00:41:41.104Z,9.667994
2022-11-13T00:42:41.116Z,9.668006
2022-11-13T00:43:41.125Z,9.667994
2022-11-13T00:44:41.138Z,9.667999
2022-11-13T00:45:41.126Z,9.668006
2022-11-13T00:46:41.109Z,9.667989
2022-11-13T00:47:41.086Z,9.667994
2022-11-13T00:48:41.049Z,9.668045
2022-11-13T00:49:41.069Z,9.668056
2022-11-13T00:50:41.149Z,9.668051
2022-11-13T00:51:41.074Z,9.668045
2022-11-13T00:52:41.042Z,9.668043
2022-11-13T00:53:41.040Z,9.668029
2022-11-13T00:54:41.015Z,9.668013
2022-11-13T00:55:41.045Z,9.668005
2022-11-13T00:56:41.066Z,9.668022
2022-11-13T00:57:40.994Z,9.668028
2022-11-13T00:58:40.997Z,9.667979
2022-11-13T00:59:40.980Z,9.667976
2022-11-13T01:00:40.975Z,9.668033
2022-11-13T01:01:41.034Z,9.668035
2022-11-13T01:02:40.951Z,9.668065
2022-11-13T01:03:40.930Z,9.668061
2022-11-13T01:04:40.964Z,9.668027
2022-11-13T01:05:40.981Z,9.667965
2022-11-13T01:06:41.073Z,9.667998
2022-11-13T01:07:40.983Z,9.667956
2022-11-13T01:08:40.925Z,9.667974
2022-11-13T01:09:40.938Z,9.667976
2022-11-13T01:10:40.881Z,9.668000
2022-11-13T01:11:40.878Z,9.668020
2022-11-13T01:12:40.888Z,9.667994
2022-11-13T01:13:40.856Z,9.668011
2022-11-13T01:14:40.856Z,9.667900
2022-11-13T01:15:40.830Z,9.667968
2022-11-13T01:16:40.882Z,9.668036
2022-11-13T01:17:40.878Z,9.668004
2022-11-13T01:18:40.883Z,9.667994
2022-11-13T01:19:40.835Z,9.668025
2022-11-13T01:20:40.848Z,9.668001
2022-11-13T01:21:40.800Z,9.667959
2022-11-13T01:22:40.867Z,9.668006
2022-11-13T01:23:40.821Z,9.668014
2022-11-13T01:24:40.827Z,9.667933
2022-11-13T01:25:40.770Z,9.668084
2022-11-13T01:26:40.779Z,9.668058
2022-11-13T01:27:40.763Z,9.668056
2022-11-13T01:28:40.768Z,9.668098
2022-11-13T01:29:40.777Z,9.668109
2022-11-13T01:30:40.797Z,9.668087
2022-11-13T01:31:40.728Z,9.668099
2022-11-13T01:32:40.735Z,9.668013
2022-11-13T01:33:40.737Z,9.668034
2022-11-13T01:34:40.722Z,9.668036
2022-11-13T01:35:40.713Z,9.668050
2022-11-13T01:36:40.702Z,9.667993
2022-11-13T01:37:40.703Z,9.668008
2022-11-13T01:38:40.754Z,9.668032
2022-11-13T01:39:40.688Z,9.668027
2022-11-13T01:40:40.721Z,9.667997
2022-11-13T01:41:40.640Z,9.668021
2022-11-13T01:42:40.668Z,9.668016
2022-11-13T01:43:40.615Z,9.667997
2022-11-13T01:44:41.646Z,9.668029
2022-11-13T02:04:28.881Z,9.668037
2022-11-13T02:05:28.888Z,9.668069
2022-11-13T02:06:28.988Z,9.667974
2022-11-13T02:07:28.946Z,9.668010
2022-11-13T02:08:29.317Z,9.668004
2022-11-13T02:09:28.878Z,9.668035
2022-11-13T02:10:28.879Z,9.668064
2022-11-13T02:11:28.843Z,9.668070
2022-11-13T02:12:28.831Z,9.668105
2022-11-13T02:13:28.853Z,9.668050
2022-11-13T02:14:28.797Z,9.668024
2022-11-13T02:16:00.697Z,9.668043
2022-11-13T02:16:28.808Z,9.668066
2022-11-13T02:17:28.851Z,9.668085
2022-11-13T02:18:29.160Z,9.668069
2022-11-13T02:19:28.747Z,9.668044
2022-11-13T02:20:28.741Z,9.668040
2022-11-13T02:21:28.748Z,9.668054
2022-11-13T02:22:28.803Z,9.668058
2022-11-13T02:23:28.736Z,9.667941
2022-11-13T02:24:28.754Z,9.668002
2022-11-13T02:25:28.743Z,9.668013
2022-11-13T02:26:28.719Z,9.668032
2022-11-13T02:27:28.701Z,9.668052
2022-11-13T02:28:29.092Z,9.668060
2022-11-13T02:29:28.684Z,9.668052
2022-11-13T02:30:28.713Z,9.668072
2022-11-13T02:31:28.673Z,9.668048
2022-11-13T02:32:28.684Z,9.668026
2022-11-13T02:33:28.663Z,9.668026
2022-11-13T02:34:28.740Z,9.668048
2022-11-13T02:35:28.685Z,9.668111
2022-11-13T02:36:28.615Z,9.668061
2022-11-13T02:37:28.621Z,9.668114
2022-11-13T02:38:28.965Z,9.668050
2022-11-13T02:39:28.620Z,9.668090
2022-11-13T02:40:28.609Z,9.668065
2022-11-13T02:41:28.578Z,9.668037
2022-11-13T02:42:28.589Z,9.668002
2022-11-13T02:43:28.573Z,9.668025
2022-11-13T02:44:28.595Z,9.668020
2022-11-13T02:45:28.571Z,9.668034
2022-11-13T02:53:35.694Z,9.668172
2022-11-13T02:54:35.675Z,9.667994
2022-11-13T02:55:35.674Z,9.668022
2022-11-13T02:56:35.675Z,9.668074
2022-11-13T02:57:35.637Z,9.668156
2022-11-13T02:58:35.644Z,9.668033
2022-11-13T02:59:35.665Z,9.668052
2022-11-13T03:00:35.627Z,9.668032
2022-11-13T03:01:35.682Z,9.668019
2022-11-13T03:02:35.607Z,9.667882
2022-11-13T03:03:59.152Z,9.668022
2022-11-13T03:05:05.225Z,9.668004
2022-11-13T03:05:37.688Z,9.668000
2022-11-13T03:06:35.604Z,9.667976
2022-11-13T03:07:35.606Z,9.667944
2022-11-13T03:08:36.603Z,9.667975
2022-11-13T03:09:35.608Z,9.667958
2022-11-13T03:10:35.559Z,9.667935
2022-11-13T03:11:35.598Z,9.667989
2022-11-13T03:12:35.563Z,9.668077
2022-11-13T03:13:35.576Z,9.668034
2022-11-13T03:14:35.533Z,9.668068
2022-11-13T03:15:35.574Z,9.668067
2022-11-13T03:16:35.545Z,9.668078
2022-11-13T03:17:35.505Z,9.668057
2022-11-13T03:18:35.523Z,9.668088
2022-11-13T03:19:35.547Z,9.668076
2022-11-13T03:20:35.493Z,9.668048
2022-11-13T03:21:36.292Z,9.668021
2022-11-13T03:22:35.464Z,9.668101
2022-11-13T03:23:35.482Z,9.668034
2022-11-13T03:24:35.470Z,9.668001
2022-11-13T03:25:35.483Z,9.668040
2022-11-13T03:26:36.273Z,9.667978
2022-11-13T03:27:35.520Z,9.667974
2022-11-13T03:28:36.295Z,9.668055
2022-11-13T03:29:35.426Z,9.668010
2022-11-13T03:30:35.426Z,9.668049
2022-11-13T03:31:35.472Z,9.668001
2022-11-13T03:32:35.397Z,9.668036
2022-11-13T03:33:35.385Z,9.668008
2022-11-13T03:34:35.377Z,9.668055
2022-11-13T03:35:43.014Z,9.668013
2022-11-13T03:36:37.367Z,9.668006
2022-11-13T03:37:35.480Z,9.667973
2022-11-13T03:38:35.353Z,9.667988
2022-11-13T03:39:35.382Z,9.667983
2022-11-13T03:40:35.334Z,9.668014
2022-11-13T03:41:35.338Z,9.668025
2022-11-13T03:42:35.314Z,9.668019
2022-11-13T03:43:35.332Z,9.667984
2022-11-13T03:44:35.366Z,9.667998
2022-11-13T03:45:35.298Z,9.668022
2022-11-13T03:46:35.279Z,9.667986
2022-11-13T03:47:35.281Z,9.667985
2022-11-13T04:05:52.081Z,9.667945
2022-11-13T04:06:52.086Z,9.667928
2022-11-13T04:07:52.059Z,9.668024
2022-11-13T04:08:52.043Z,9.668000
2022-11-13T04:09:52.035Z,9.667951
2022-11-13T04:10:52.018Z,9.667965
2022-11-13T04:11:52.031Z,9.668003
2022-11-13T04:12:52.022Z,9.667987
2022-11-13T04:13:51.987Z,9.667999
2022-11-13T04:14:51.978Z,9.667985
2022-11-13T04:15:51.979Z,9.668015
2022-11-13T04:16:51.983Z,9.667997
2022-11-13T04:17:51.980Z,9.668021
2022-11-13T04:18:52.036Z,9.668000
2022-11-13T04:19:51.964Z,9.667981
2022-11-13T04:20:51.979Z,9.667962
2022-11-13T04:21:51.912Z,9.667984
2022-11-13T04:22:52.102Z,9.668003
2022-11-13T04:23:51.933Z,9.668000
2022-11-13T04:24:51.928Z,9.667973
2022-11-13T04:25:51.895Z,9.668006
2022-11-13T04:26:51.902Z,9.668013
2022-11-13T04:27:51.887Z,9.668027
2022-11-13T04:28:51.899Z,9.668048
2022-11-13T04:29:51.876Z,9.668031
2022-11-13T04:30:51.891Z,9.668016
2022-11-13T04:31:51.881Z,9.668015
2022-11-13T04:32:51.873Z,9.668021
2022-11-13T04:33:51.889Z,9.668032
2022-11-13T04:34:51.919Z,9.667983
2022-11-13T04:35:51.841Z,9.668039
2022-11-13T04:36:51.833Z,9.668015
2022-11-13T04:37:51.817Z,9.667987
2022-11-13T04:38:51.820Z,9.667931
2022-11-13T04:39:51.787Z,9.667982
2022-11-13T04:40:51.821Z,9.667943
2022-11-13T04:41:55.367Z,9.667927
2022-11-13T04:42:52.758Z,9.667879
2022-11-13T04:43:51.789Z,9.667878
2022-11-13T04:44:51.746Z,9.667912
2022-11-13T04:45:51.749Z,9.667888
2022-11-13T04:46:51.741Z,9.667925
2022-11-13T04:47:51.737Z,9.668024
2022-11-13T04:48:51.773Z,9.667926
2022-11-13T04:49:51.739Z,9.668047
2022-11-13T04:50:52.791Z,9.668033
2022-11-13T04:51:51.704Z,9.668019
2022-11-13T04:52:51.687Z,9.667988
2022-11-13T04:53:51.669Z,9.667908
2022-11-13T04:54:51.689Z,9.667851
2022-11-13T04:55:51.655Z,9.667874
2022-11-13T04:56:51.707Z,9.667898
2022-11-13T04:57:51.688Z,9.667878
2022-11-13T04:58:51.641Z,9.667867
2022-11-13T04:59:51.627Z,9.667933
2022-11-13T05:00:51.667Z,9.667994
2022-11-13T05:01:51.705Z,9.668020
2022-11-13T05:02:51.601Z,9.667997
2022-11-13T05:03:51.600Z,9.667979
2022-11-13T05:04:51.599Z,9.667953
2022-11-13T05:05:51.594Z,9.667912
2022-11-13T05:06:51.780Z,9.667899
2022-11-13T05:07:51.619Z,9.667932
2022-11-13T05:08:51.569Z,9.667985
2022-11-13T05:09:51.564Z,9.667913
2022-11-13T05:10:52.167Z,9.667951
2022-11-13T05:11:51.593Z,9.667975
2022-11-13T05:12:51.560Z,9.667970
2022-11-13T05:13:51.525Z,9.667965
2022-11-13T05:14:51.515Z,9.667947
2022-11-13T05:15:51.513Z,9.667855
2022-11-13T05:16:51.506Z,9.667977
2022-11-13T05:17:51.522Z,9.668031
2022-11-13T05:18:51.505Z,9.668014
2022-11-13T05:19:51.493Z,9.668000
2022-11-13T05:20:51.503Z,9.667978
2022-11-13T05:21:51.436Z,9.667997
2022-11-13T05:22:52.556Z,9.667993
2022-11-13T05:23:51.484Z,9.667997
2022-11-13T05:24:51.441Z,9.668008
2022-11-13T05:25:51.460Z,9.668044
2022-11-13T05:26:51.428Z,9.668056
2022-11-13T05:27:51.418Z,9.668040
2022-11-13T05:28:51.420Z,9.668024
2022-11-13T05:29:51.421Z,9.668020
2022-11-13T05:30:51.397Z,9.668021
2022-11-13T05:31:51.404Z,9.668029
2022-11-13T05:32:51.395Z,9.667994
2022-11-13T05:33:51.357Z,9.667977
2022-11-13T05:34:51.391Z,9.668000
2022-11-13T05:35:51.369Z,9.668004
2022-11-13T05:36:51.335Z,9.668052
2022-11-13T05:37:51.343Z,9.668012
2022-11-13T05:38:51.416Z,9.668061
2022-11-13T05:39:51.327Z,9.668037
2022-11-13T05:40:51.326Z,9.667996
2022-11-13T05:41:51.298Z,9.668013
2022-11-13T05:42:51.299Z,9.667965
2022-11-13T05:43:56.579Z,9.667967
2022-11-13T05:44:53.278Z,9.668073
2022-11-13T05:45:51.305Z,9.668089
2022-11-13T05:46:51.271Z,9.668048
2022-11-13T05:47:51.289Z,9.668022
2022-11-13T05:48:51.260Z,9.668041
2022-11-13T05:49:51.273Z,9.668036
2022-11-13T05:50:51.239Z,9.668040
2022-11-13T05:51:51.243Z,9.668058
2022-11-13T05:56:38.937Z,9.668118
2022-11-13T05:57:38.903Z,9.668122
2022-11-13T05:58:38.898Z,9.667917
2022-11-13T05:59:38.918Z,9.667938
2022-11-13T06:00:38.906Z,9.667968
2022-11-13T06:01:38.964Z,9.667990
2022-11-13T06:02:38.861Z,9.668004
2022-11-13T06:03:38.862Z,9.667956
2022-11-13T06:04:38.855Z,9.667979
2022-11-13T06:05:39.852Z,9.668005
2022-11-13T06:06:38.923Z,9.667955
2022-11-13T06:07:38.843Z,9.668035
2022-11-13T06:08:38.862Z,9.667965
2022-11-13T06:09:38.844Z,9.667963
2022-11-13T06:10:38.903Z,9.667975
2022-11-13T06:11:38.796Z,9.667898
2022-11-13T06:12:38.795Z,9.667926
2022-11-13T06:13:38.779Z,9.667982
2022-11-13T06:14:38.779Z,9.667987
2022-11-13T06:15:38.758Z,9.668048
2022-11-13T06:16:38.758Z,9.667958
2022-11-13T06:17:39.366Z,9.668010
2022-11-13T06:18:38.734Z,9.667961
2022-11-13T06:19:38.738Z,9.667954
2022-11-13T06:20:38.718Z,9.667947
2022-11-13T06:21:38.713Z,9.667890
2022-11-13T06:22:38.722Z,9.667940
2022-11-13T06:23:38.726Z,9.667921
2022-11-13T06:24:38.717Z,9.668033
2022-11-13T06:25:38.687Z,9.668103
2022-11-13T06:26:38.761Z,9.667997
2022-11-13T06:27:38.667Z,9.668118
2022-11-13T06:28:38.659Z,9.668059
2022-11-13T06:29:38.662Z,9.667988
2022-11-13T06:30:39.518Z,9.668047
2022-11-13T06:31:38.640Z,9.667986
2022-11-13T06:32:38.623Z,9.667994
2022-11-13T06:33:38.687Z,9.667986
2022-11-13T06:34:38.608Z,9.668049
2022-11-13T06:35:38.698Z,9.667982
2022-11-13T06:36:38.617Z,9.668048
2022-11-13T06:37:38.607Z,9.667983
2022-11-13T06:38:38.617Z,9.668012
2022-11-13T06:39:38.569Z,9.667988
2022-11-13T06:40:39.362Z,9.667949
2022-11-13T06:41:38.605Z,9.667976
2022-11-13T06:42:38.661Z,9.667977
2022-11-13T06:43:38.554Z,9.668012
2022-11-13T06:44:38.573Z,9.668097
2022-11-13T06:45:38.533Z,9.668009
2022-11-13T06:46:38.503Z,9.667994
2022-11-13T06:47:39.374Z,9.667949
2022-11-13T06:48:38.507Z,9.667960
2022-11-13T06:49:38.510Z,9.668036
2022-11-13T06:50:38.569Z,9.667909
2022-11-13T06:51:38.498Z,9.667870
2022-11-13T06:52:38.535Z,9.667871
2022-11-13T06:53:38.460Z,9.667926
2022-11-13T06:54:38.443Z,9.667912
2022-11-13T06:55:38.452Z,9.667943
2022-11-13T06:56:38.428Z,9.667995
2022-11-13T06:57:38.455Z,9.668016
2022-11-13T06:58:38.549Z,9.668026
2022-11-13T06:59:38.433Z,9.667983
2022-11-13T07:00:40.069Z,9.667885
2022-11-13T07:01:39.473Z,9.668027
2022-11-13T07:02:38.399Z,9.667709
2022-11-13T07:03:38.449Z,9.667861
2022-11-13T07:04:38.410Z,9.667840
2022-11-13T07:05:38.394Z,9.667929
2022-11-13T07:06:40.533Z,9.668040
2022-11-13T07:07:39.363Z,9.667987
2022-11-13T07:08:38.395Z,9.667981
2022-11-13T07:09:38.359Z,9.667962
2022-11-13T07:10:38.945Z,9.667979
2022-11-13T07:11:38.344Z,9.667960
2022-11-13T07:12:38.353Z,9.667900
2022-11-13T07:13:38.319Z,9.667941
2022-11-13T07:14:38.407Z,9.667934
2022-11-13T07:15:38.299Z,9.667969
2022-11-13T07:16:56.643Z,9.668001
2022-11-13T07:17:40.313Z,9.667963
2022-11-13T07:18:38.278Z,9.667947
2022-11-13T07:19:38.309Z,9.667949
2022-11-13T07:20:38.271Z,9.667943
2022-11-13T07:21:38.256Z,9.667992
2022-11-13T07:22:38.272Z,9.667948
2022-11-13T07:23:38.247Z,9.667977
2022-11-13T07:24:38.281Z,9.667965
2022-11-13T07:25:38.225Z,9.667963
2022-11-13T07:26:38.238Z,9.667963
2022-11-13T07:27:38.241Z,9.667985
2022-11-13T07:28:38.195Z,9.667879
2022-11-13T07:29:38.198Z,9.667987
2022-11-13T07:30:38.280Z,9.668076
2022-11-13T07:31:38.201Z,9.668044
2022-11-13T07:32:38.196Z,9.668024
2022-11-13T07:33:38.175Z,9.668054
2022-11-13T07:34:38.172Z,9.668051
2022-11-13T07:35:38.143Z,9.668033
2022-11-13T07:36:38.187Z,9.667992
2022-11-13T07:37:38.134Z,9.667973
2022-11-13T07:38:38.122Z,9.667984
2022-11-13T07:39:38.179Z,9.667988
2022-11-13T07:40:38.118Z,9.667993
2022-11-13T07:41:38.122Z,9.667982
2022-11-13T07:42:38.129Z,9.667946
2022-11-13T07:43:38.098Z,9.667981
2022-11-13T07:44:53.990Z,9.667970
2022-11-13T07:45:40.105Z,9.667979
2022-11-13T07:46:38.187Z,9.667974
2022-11-13T07:47:38.077Z,9.667943
2022-11-13T07:48:38.071Z,9.667939
2022-11-13T07:49:38.044Z,9.668004
2022-11-13T07:50:38.035Z,9.667998
2022-11-13T07:51:38.059Z,9.667983
2022-11-13T07:52:39.011Z,9.667972
2022-11-13T07:53:38.068Z,9.667968
2022-11-13T07:54:38.014Z,9.668048
2022-11-13T07:55:38.009Z,9.668038
2022-11-13T07:56:37.995Z,9.668015
2022-11-13T07:57:37.987Z,9.667980
2022-11-13T07:58:38.127Z,9.668058
2022-11-13T07:59:37.962Z,9.668052
2022-11-13T08:00:37.993Z,9.667958
2022-11-13T08:01:37.982Z,9.667980
2022-11-13T08:02:38.028Z,9.668006
2022-11-13T08:03:37.965Z,9.667992
2022-11-13T08:04:37.993Z,9.667953
2022-11-13T08:05:37.982Z,9.668049
2022-11-13T08:06:38.040Z,9.668029
2022-11-13T08:07:37.937Z,9.667987
2022-11-13T08:08:38.009Z,9.667958
2022-11-13T08:09:37.924Z,9.668033
2022-11-13T08:10:37.920Z,9.667990
2022-11-13T08:11:37.892Z,9.668017
2022-11-13T08:12:37.881Z,9.668002
2022-11-13T08:13:37.894Z,9.667995
2022-11-13T08:14:37.868Z,9.667989
2022-11-13T08:19:57.598Z,9.668200
2022-11-13T08:20:57.672Z,9.668166
2022-11-13T08:21:57.643Z,9.667973
2022-11-13T08:22:57.536Z,9.667942
2022-11-13T08:23:57.559Z,9.667981
2022-11-13T08:24:57.545Z,9.667927
2022-11-13T08:25:57.561Z,9.667987
2022-11-13T08:26:57.556Z,9.667931
2022-11-13T08:27:57.500Z,9.667956
2022-11-13T08:28:57.549Z,9.667994
2022-11-13T08:29:57.481Z,9.667957
2022-11-13T08:30:57.493Z,9.667934
2022-11-13T08:31:57.526Z,9.667935
2022-11-13T08:32:57.498Z,9.667942
2022-11-13T08:33:57.568Z,9.667933
2022-11-13T08:34:57.505Z,9.667905
2022-11-13T08:35:57.445Z,9.667922
2022-11-13T08:36:57.430Z,9.667968
2022-11-13T08:37:57.448Z,9.667924
2022-11-13T08:38:57.428Z,9.667935
2022-11-13T08:39:57.415Z,9.667918
2022-11-13T08:40:57.416Z,9.667999
2022-11-13T08:41:57.397Z,9.667961
2022-11-13T08:42:57.465Z,9.667974
2022-11-13T08:43:57.466Z,9.667980
2022-11-13T08:44:57.403Z,9.667996
2022-11-13T08:45:57.499Z,9.668055
2022-11-13T08:46:57.370Z,9.667969
2022-11-13T08:47:57.468Z,9.667998
2022-11-13T08:48:57.410Z,9.668015
2022-11-13T08:49:58.430Z,9.668022
2022-11-13T08:50:57.340Z,9.668020
2022-11-13T08:51:57.389Z,9.668034
2022-11-13T08:52:57.316Z,9.668022
2022-11-13T08:53:57.368Z,9.668036
2022-11-13T08:54:57.364Z,9.668020
2022-11-13T08:55:57.288Z,9.668036
2022-11-13T08:57:00.753Z,9.668036
2022-11-13T08:57:59.302Z,9.667984
2022-11-13T08:58:57.288Z,9.667987
2022-11-13T08:59:57.264Z,9.667993
2022-11-13T09:00:57.259Z,9.668019
2022-11-13T09:01:57.254Z,9.668014
2022-11-13T09:02:57.286Z,9.668002
2022-11-13T09:03:57.305Z,9.668024
2022-11-13T09:04:57.239Z,9.668058
2022-11-13T09:05:57.300Z,9.667987
2022-11-13T09:06:57.214Z,9.667958
2022-11-13T09:07:57.221Z,9.667978
2022-11-13T09:08:57.391Z,9.668041
2022-11-13T09:09:57.192Z,9.667998
2022-11-13T09:10:57.601Z,9.668009
2022-11-13T09:11:57.183Z,9.668047
2022-11-13T09:12:57.155Z,9.668066
2022-11-13T09:13:57.268Z,9.668028
2022-11-13T09:14:59.070Z,9.668002
2022-11-13T09:15:57.175Z,9.668057
2022-11-13T09:16:57.124Z,9.668010
2022-11-13T09:17:58.072Z,9.667987
2022-11-13T09:18:57.133Z,9.668023
2022-11-13T09:20:00.900Z,9.668059
2022-11-13T09:20:59.097Z,9.668065
2022-11-13T09:21:57.224Z,9.668005
2022-11-13T09:22:58.001Z,9.667991
2022-11-13T09:23:57.077Z,9.668021
2022-11-13T09:24:57.084Z,9.668086
2022-11-13T09:25:57.059Z,9.668078
2022-11-13T09:26:57.084Z,9.668055
2022-11-13T09:27:57.076Z,9.667894
2022-11-13T09:28:57.019Z,9.667995
2022-11-13T09:29:57.021Z,9.668080
2022-11-13T09:30:57.031Z,9.668040
2022-11-13T09:31:57.032Z,9.668069
2022-11-13T09:32:57.008Z,9.668063
2022-11-13T09:33:57.106Z,9.668008
2022-11-13T09:34:56.983Z,9.668040
2022-11-13T09:35:57.029Z,9.668045
2022-11-13T09:36:56.964Z,9.668045
2022-11-13T09:37:57.073Z,9.668039
2022-11-13T09:38:56.968Z,9.668001
2022-11-13T09:39:56.973Z,9.667974
2022-11-13T09:40:56.946Z,9.668010
2022-11-13T09:41:56.955Z,9.668024
2022-11-13T09:42:56.983Z,9.668032
2022-11-13T09:43:59.944Z,9.667997
2022-11-13T09:44:57.954Z,9.668019
2022-11-13T09:45:56.924Z,9.668095
2022-11-13T09:46:56.882Z,9.668058
2022-11-13T09:47:56.910Z,9.668084
2022-11-13T09:48:56.893Z,9.667996
2022-11-13T09:49:56.899Z,9.668000
2022-11-13T09:50:56.870Z,9.667987
2022-11-13T09:51:56.864Z,9.668017
2022-11-13T09:52:56.854Z,9.667995
2022-11-13T09:53:56.907Z,9.667993
2022-11-13T09:54:56.888Z,9.668037
2022-11-13T09:55:56.867Z,9.668040
2022-11-13T09:56:56.818Z,9.668032
2022-11-13T09:57:56.810Z,9.667980
2022-11-13T09:58:56.838Z,9.667984
2022-11-13T09:59:56.795Z,9.668013
2022-11-13T10:00:56.841Z,9.668005
2022-11-13T10:01:56.799Z,9.668009
2022-11-13T10:02:56.796Z,9.668016
2022-11-13T10:04:02.435Z,9.668034
2022-11-13T10:04:58.747Z,9.667985
2022-11-13T10:05:56.747Z,9.667963
2022-11-13T10:06:56.801Z,9.668002
2022-11-13T10:07:56.767Z,9.668016
2022-11-13T10:08:56.712Z,9.667974
2022-11-13T10:09:56.874Z,9.667998
2022-11-13T10:10:56.707Z,9.668031
2022-11-13T10:11:56.757Z,9.668028
2022-11-13T10:12:57.683Z,9.668001
2022-11-13T10:13:56.677Z,9.667987
2022-11-13T10:14:56.687Z,9.667992
2022-11-13T10:15:56.660Z,9.667992
2022-11-13T10:16:56.684Z,9.667984
2022-11-13T10:17:57.100Z,9.667992
2022-11-13T10:18:57.647Z,9.668019
2022-11-13T10:19:56.679Z,9.668018
2022-11-13T10:20:56.613Z,9.668009
2022-11-13T10:22:07.627Z,9.668048
2022-11-13T10:22:58.643Z,9.668066
2022-11-13T10:23:56.738Z,9.668093
2022-11-13T10:24:56.599Z,9.668056
2022-11-13T10:25:56.688Z,9.668058
2022-11-13T10:26:56.587Z,9.668069
2022-11-13T10:27:56.611Z,9.668052
2022-11-13T10:28:56.653Z,9.668005
2022-11-13T10:29:56.557Z,9.668059
2022-11-13T10:30:56.555Z,9.668029
2022-11-13T10:31:56.549Z,9.668024
2022-11-13T10:32:56.546Z,9.668068
2022-11-13T10:33:56.573Z,9.668077
2022-11-13T10:34:56.547Z,9.668061
2022-11-13T10:35:56.522Z,9.668051
2022-11-13T10:36:56.509Z,9.668045
2022-11-13T10:37:56.516Z,9.668028
2022-11-13T10:38:57.187Z,9.668059
2022-11-13T10:39:56.512Z,9.668051
2022-11-13T10:40:56.511Z,9.668066
2022-11-13T10:41:56.570Z,9.668049
2022-11-13T10:42:56.457Z,9.668075
2022-11-13T10:43:56.574Z,9.668029
2022-11-13T10:44:57.510Z,9.668060
2022-11-13T10:45:56.440Z,9.668045
2022-11-13T10:46:56.460Z,9.668020
2022-11-13T10:48:04.300Z,9.668028
2022-11-13T10:48:58.429Z,9.668013
2022-11-13T10:49:56.406Z,9.668042
2022-11-13T10:50:56.429Z,9.668039
2022-11-13T10:51:56.645Z,9.668032
2022-11-13T10:52:56.375Z,9.668035
2022-11-13T10:53:56.375Z,9.668018
2022-11-13T10:54:56.399Z,9.668018
2022-11-13T10:55:56.380Z,9.668035
2022-11-13T10:56:56.396Z,9.668035
2022-11-13T10:57:56.739Z,9.668036
2022-11-13T10:58:57.365Z,9.668052
2022-11-13T10:59:56.342Z,9.668062
2022-11-13T11:00:56.458Z,9.668059
2022-11-13T11:01:56.421Z,9.668033
2022-11-13T11:02:56.342Z,9.668049
2022-11-13T11:03:56.368Z,9.668002
2022-11-13T11:04:56.298Z,9.668036
2022-11-13T11:05:56.298Z,9.668057
2022-11-13T11:07:19.085Z,9.668041
2022-11-13T11:07:58.440Z,9.668026
2022-11-13T11:08:56.314Z,9.668002
2022-11-13T11:09:56.247Z,9.668024
2022-11-13T11:10:56.317Z,9.668038
2022-11-13T11:11:56.285Z,9.668014
2022-11-13T11:12:56.250Z,9.668052
2022-11-13T11:13:56.340Z,9.668015
2022-11-13T11:14:57.168Z,9.668057
2022-11-13T11:15:56.250Z,9.668035
2022-11-13T11:16:56.227Z,9.668046
2022-11-13T11:17:56.222Z,9.668036
2022-11-13T11:18:56.171Z,9.668025
2022-11-13T11:19:57.100Z,9.668054
2022-11-13T11:20:56.206Z,9.668040
2022-11-13T11:21:56.201Z,9.667979
2022-11-13T11:22:56.257Z,9.667968
2022-11-13T11:23:56.515Z,9.668048
2022-11-13T11:24:57.161Z,9.668031
2022-11-13T11:25:56.152Z,9.668036
2022-11-13T11:26:56.139Z,9.668010
2022-11-13T11:27:56.141Z,9.668036
2022-11-13T11:28:56.115Z,9.668049
2022-11-13T11:29:56.240Z,9.668063
2022-11-13T11:30:56.086Z,9.668020
2022-11-13T11:31:56.728Z,9.668038
2022-11-13T11:32:56.066Z,9.668022
2022-11-13T11:33:56.079Z,9.668052
2022-11-13T11:34:59.165Z,9.668049
2022-11-13T11:35:57.124Z,9.668083
2022-11-13T11:36:56.061Z,9.668081
2022-11-13T11:37:56.045Z,9.668107
2022-11-13T11:38:56.049Z,9.668062
2022-11-13T11:39:56.067Z,9.668044
2022-11-13T11:40:56.008Z,9.668092
2022-11-13T11:41:56.043Z,9.668085
2022-11-13T11:42:56.026Z,9.668084
2022-11-13T11:43:55.992Z,9.668090
2022-11-13T11:44:56.526Z,9.668060
2022-11-13T11:45:56.059Z,9.668084
2022-11-13T11:46:56.523Z,9.668056
2022-11-13T11:47:56.000Z,9.668046
2022-11-13T11:48:55.964Z,9.668093
2022-11-13T11:49:55.992Z,9.668092
2022-11-13T11:50:55.932Z,9.668056
2022-11-13T11:51:55.956Z,9.668106
2022-11-13T11:52:55.934Z,9.668096
2022-11-13T11:53:55.948Z,9.668134
2022-11-13T11:54:55.933Z,9.668111
2022-11-13T11:55:56.724Z,9.668092
2022-11-13T11:56:55.925Z,9.668074
2022-11-13T11:57:55.985Z,9.668118
2022-11-13T11:58:56.674Z,9.668141
2022-11-13T11:59:55.872Z,9.668097
2022-11-13T12:00:55.934Z,9.668109
2022-11-13T12:01:55.941Z,9.668079
2022-11-13T12:02:56.528Z,9.668109
2022-11-13T12:03:55.864Z,9.668102
2022-11-13T12:04:55.853Z,9.668095
2022-11-13T12:05:55.848Z,9.668086
2022-11-13T12:06:55.953Z,9.668047
2022-11-13T12:07:55.827Z,9.668091
2022-11-13T12:08:55.818Z,9.668095
2022-11-13T12:09:55.766Z,9.668102
2022-11-13T12:10:56.595Z,9.668104
2022-11-13T12:11:55.801Z,9.668036
2022-11-13T12:12:55.767Z,9.668043
2022-11-13T12:13:55.817Z,9.668043
2022-11-13T12:14:55.756Z,9.668072
2022-11-13T12:15:55.748Z,9.668097
2022-11-13T12:16:55.810Z,9.668108
2022-11-13T12:17:55.850Z,9.668088
2022-11-13T12:18:55.760Z,9.668066
2022-11-13T12:19:55.726Z,9.668071
2022-11-13T12:20:55.742Z,9.668063
2022-11-13T12:21:55.724Z,9.668040
2022-11-13T12:22:55.769Z,9.668084
2022-11-13T12:23:55.696Z,9.668083
2022-11-13T12:24:55.670Z,9.668075
2022-11-13T12:25:55.694Z,9.668075
2022-11-13T12:26:55.702Z,9.668086
2022-11-13T12:27:55.688Z,9.668048
2022-11-13T12:28:55.673Z,9.668065
2022-11-13T12:29:55.623Z,9.668056
2022-11-13T12:30:55.664Z,9.668037
2022-11-13T12:31:55.631Z,9.668032
2022-11-13T12:32:55.625Z,9.668041
2022-11-13T12:34:01.124Z,9.668009
2022-11-13T12:34:57.606Z,9.667994
2022-11-13T12:35:55.620Z,9.667995
2022-11-13T12:36:55.600Z,9.668031